sensor_id;sensor_type;location;lat;lon;timestamp;temperature;humidity
74171;DHT22;62526;50.948;6.590;2022-12-08T00:01:26;4.90;99.90
74171;DHT22;62526;50.948;6.590;2022-12-08T00:03:53;4.90;99.90
74171;DHT22;62526;50.948;6.590;2022-12-08T00:06:24;4.90;99.90
74171;DHT22;62526;50.948;6.590;2022-12-08T00:08:55;4.80;99.90
74171;DHT22;62526;50.948;6.590;2022-12-08T00:11:27;4.80;99.90
74171;DHT22;62526;50.948;6.590;2022-12-08T00:13:54;4.90;99.90
74171;DHT22;62526;50.948;6.590;2022-12-08T00:16:21;4.90;99.90
74171;DHT22;62526;50.948;6.590;2022-12-08T00:18:48;4.90;99.90
74171;DHT22;62526;50.948;6.590;2022-12-08T00:21:15;5.00;99.90
74171;DHT22;62526;50.948;6.590;2022-12-08T00:23:42;4.90;99.90
74171;DHT22;62526;50.948;6.590;2022-12-08T00:26:08;5.00;99.90
74171;DHT22;62526;50.948;6.590;2022-12-08T00:28:35;4.90;99.90
74171;DHT22;62526;50.948;6.590;2022-12-08T00:31:08;4.90;99.90
74171;DHT22;62526;50.948;6.590;2022-12-08T00:33:34;4.80;99.90
74171;DHT22;62526;50.948;6.590;2022-12-08T00:36:07;4.80;99.90
74171;DHT22;62526;50.948;6.590;2022-12-08T00:38:33;4.80;99.90
74171;DHT22;62526;50.948;6.590;2022-12-08T00:41:01;4.80;99.90
74171;DHT22;62526;50.948;6.590;2022-12-08T00:43:27;4.80;99.90
74171;DHT22;62526;50.948;6.590;2022-12-08T00:45:54;4.80;99.90
74171;DHT22;62526;50.948;6.590;2022-12-08T00:48:20;4.70;99.90
74171;DHT22;62526;50.948;6.590;2022-12-08T00:50:48;4.70;99.90
74171;DHT22;62526;50.948;6.590;2022-12-08T00:53:14;4.70;99.90
74171;DHT22;62526;50.948;6.590;2022-12-08T00:55:41;4.70;99.90
74171;DHT22;62526;50.948;6.590;2022-12-08T00:58:08;4.70;99.90
74171;DHT22;62526;50.948;6.590;2022-12-08T01:00:35;4.80;99.90
74171;DHT22;62526;50.948;6.590;2022-12-08T01:03:03;4.70;99.90
74171;DHT22;62526;50.948;6.590;2022-12-08T01:05:30;4.70;99.90
74171;DHT22;62526;50.948;6.590;2022-12-08T01:07:57;4.70;99.90
74171;DHT22;62526;50.948;6.590;2022-12-08T01:10:23;4.80;99.90
74171;DHT22;62526;50.948;6.590;2022-12-08T01:12:50;4.70;99.90
74171;DHT22;62526;50.948;6.590;2022-12-08T01:15:17;4.80;99.90
74171;DHT22;62526;50.948;6.590;2022-12-08T01:17:43;4.80;99.90
74171;DHT22;62526;50.948;6.590;2022-12-08T01:20:10;4.80;99.90
74171;DHT22;62526;50.948;6.590;2022-12-08T01:22:37;4.90;99.90
74171;DHT22;62526;50.948;6.590;2022-12-08T01:25:04;4.80;99.90
74171;DHT22;62526;50.948;6.590;2022-12-08T01:27:30;4.80;99.90
74171;DHT22;62526;50.948;6.590;2022-12-08T01:29:57;4.80;99.90
74171;DHT22;62526;50.948;6.590;2022-12-08T01:32:23;4.80;99.90
74171;DHT22;62526;50.948;6.590;2022-12-08T01:34:50;4.80;99.90
74171;DHT22;62526;50.948;6.590;2022-12-08T01:37:17;4.80;99.90
74171;DHT22;62526;50.948;6.590;2022-12-08T01:39:44;4.80;99.90
74171;DHT22;62526;50.948;6.590;2022-12-08T01:42:17;4.80;99.90
74171;DHT22;62526;50.948;6.590;2022-12-08T01:44:53;4.80;99.90
74171;DHT22;62526;50.948;6.590;2022-12-08T01:47:18;4.90;99.90
74171;DHT22;62526;50.948;6.590;2022-12-08T01:49:45;4.90;99.90
74171;DHT22;62526;50.948;6.590;2022-12-08T01:52:47;4.90;99.90
74171;DHT22;62526;50.948;6.590;2022-12-08T01:54:56;4.90;99.90
74171;DHT22;62526;50.948;6.590;2022-12-08T01:57:24;5.00;99.90
74171;DHT22;62526;50.948;6.590;2022-12-08T01:59:53;5.20;99.90
74171;DHT22;62526;50.948;6.590;2022-12-08T02:02:19;5.10;99.90
74171;DHT22;62526;50.948;6.590;2022-12-08T02:04:46;5.20;99.90
74171;DHT22;62526;50.948;6.590;2022-12-08T02:07:12;5.10;99.90
74171;DHT22;62526;50.948;6.590;2022-12-08T02:09:39;5.10;99.90
74171;DHT22;62526;50.948;6.590;2022-12-08T02:12:06;5.10;99.90
74171;DHT22;62526;50.948;6.590;2022-12-08T02:14:33;5.10;99.90
74171;DHT22;62526;50.948;6.590;2022-12-08T02:17:04;5.20;99.90
74171;DHT22;62526;50.948;6.590;2022-12-08T02:19:59;5.10;99.90
74171;DHT22;62526;50.948;6.590;2022-12-08T02:22:25;5.00;99.90
74171;DHT22;62526;50.948;6.590;2022-12-08T02:25:01;5.60;99.90
74171;DHT22;62526;50.948;6.590;2022-12-08T02:27:36;5.10;99.90
74171;DHT22;62526;50.948;6.590;2022-12-08T02:30:06;5.00;99.90
74171;DHT22;62526;50.948;6.590;2022-12-08T02:32:45;5.10;99.90
74171;DHT22;62526;50.948;6.590;2022-12-08T02:35:34;5.10;99.90
74171;DHT22;62526;50.948;6.590;2022-12-08T02:38:07;5.10;99.90
74171;DHT22;62526;50.948;6.590;2022-12-08T02:40:38;5.10;99.90
74171;DHT22;62526;50.948;6.590;2022-12-08T02:43:02;5.10;99.90
74171;DHT22;62526;50.948;6.590;2022-12-08T02:45:30;5.10;99.90
74171;DHT22;62526;50.948;6.590;2022-12-08T02:47:56;5.10;99.90
74171;DHT22;62526;50.948;6.590;2022-12-08T02:50:22;5.10;99.90
74171;DHT22;62526;50.948;6.590;2022-12-08T02:52:50;4.90;99.90
74171;DHT22;62526;50.948;6.590;2022-12-08T02:55:19;4.90;99.90
74171;DHT22;62526;50.948;6.590;2022-12-08T02:58:04;4.90;99.90
74171;DHT22;62526;50.948;6.590;2022-12-08T03:00:30;5.00;99.90
74171;DHT22;62526;50.948;6.590;2022-12-08T03:03:03;4.90;99.90
74171;DHT22;62526;50.948;6.590;2022-12-08T03:05:38;4.90;99.90
74171;DHT22;62526;50.948;6.590;2022-12-08T03:11:00;4.90;99.90
74171;DHT22;62526;50.948;6.590;2022-12-08T03:13:28;4.80;99.90
74171;DHT22;62526;50.948;6.590;2022-12-08T03:15:52;4.90;99.90
74171;DHT22;62526;50.948;6.590;2022-12-08T03:18:19;4.90;99.90
74171;DHT22;62526;50.948;6.590;2022-12-08T03:20:45;4.90;99.90
74171;DHT22;62526;50.948;6.590;2022-12-08T03:23:13;4.90;99.90
74171;DHT22;62526;50.948;6.590;2022-12-08T03:25:42;5.00;99.90
74171;DHT22;62526;50.948;6.590;2022-12-08T03:28:07;5.00;99.90
74171;DHT22;62526;50.948;6.590;2022-12-08T03:30:35;5.10;99.90
74171;DHT22;62526;50.948;6.590;2022-12-08T03:33:03;5.10;99.90
74171;DHT22;62526;50.948;6.590;2022-12-08T03:35:30;5.10;99.90
74171;DHT22;62526;50.948;6.590;2022-12-08T03:38:06;5.00;99.90
74171;DHT22;62526;50.948;6.590;2022-12-08T03:40:31;5.00;99.90
74171;DHT22;62526;50.948;6.590;2022-12-08T03:42:58;5.10;99.90
74171;DHT22;62526;50.948;6.590;2022-12-08T03:45:24;5.00;99.90
74171;DHT22;62526;50.948;6.590;2022-12-08T03:47:51;4.90;99.90
74171;DHT22;62526;50.948;6.590;2022-12-08T03:50:17;4.90;99.90
74171;DHT22;62526;50.948;6.590;2022-12-08T03:52:44;5.00;99.90
74171;DHT22;62526;50.948;6.590;2022-12-08T03:55:11;4.90;99.90
74171;DHT22;62526;50.948;6.590;2022-12-08T03:57:37;4.90;99.90
74171;DHT22;62526;50.948;6.590;2022-12-08T04:00:06;4.90;99.90
74171;DHT22;62526;50.948;6.590;2022-12-08T04:02:32;4.90;99.90
74171;DHT22;62526;50.948;6.590;2022-12-08T04:04:59;4.90;99.90
74171;DHT22;62526;50.948;6.590;2022-12-08T04:07:26;4.90;99.90
74171;DHT22;62526;50.948;6.590;2022-12-08T04:09:53;4.90;99.90
74171;DHT22;62526;50.948;6.590;2022-12-08T04:12:20;4.90;99.90
74171;DHT22;62526;50.948;6.590;2022-12-08T04:14:46;5.00;99.90
74171;DHT22;62526;50.948;6.590;2022-12-08T04:17:13;4.90;99.90
74171;DHT22;62526;50.948;6.590;2022-12-08T04:19:40;4.90;99.90
74171;DHT22;62526;50.948;6.590;2022-12-08T04:22:07;5.00;99.90
74171;DHT22;62526;50.948;6.590;2022-12-08T04:24:34;4.90;99.90
74171;DHT22;62526;50.948;6.590;2022-12-08T04:27:01;4.90;99.90
74171;DHT22;62526;50.948;6.590;2022-12-08T04:29:27;4.90;99.90
74171;DHT22;62526;50.948;6.590;2022-12-08T04:31:54;4.90;99.90
74171;DHT22;62526;50.948;6.590;2022-12-08T04:34:21;5.00;99.90
74171;DHT22;62526;50.948;6.590;2022-12-08T04:36:48;5.00;99.90
74171;DHT22;62526;50.948;6.590;2022-12-08T04:39:15;4.90;99.90
74171;DHT22;62526;50.948;6.590;2022-12-08T04:41:41;4.90;99.90
74171;DHT22;62526;50.948;6.590;2022-12-08T04:44:08;4.90;99.90
74171;DHT22;62526;50.948;6.590;2022-12-08T04:46:34;4.90;99.90
74171;DHT22;62526;50.948;6.590;2022-12-08T04:49:01;4.90;99.90
74171;DHT22;62526;50.948;6.590;2022-12-08T04:51:28;4.80;99.90
74171;DHT22;62526;50.948;6.590;2022-12-08T04:53:55;4.80;99.90
74171;DHT22;62526;50.948;6.590;2022-12-08T04:56:22;4.80;99.90
74171;DHT22;62526;50.948;6.590;2022-12-08T04:58:48;4.80;99.90
74171;DHT22;62526;50.948;6.590;2022-12-08T05:01:15;4.70;99.90
74171;DHT22;62526;50.948;6.590;2022-12-08T05:03:42;4.70;99.90
74171;DHT22;62526;50.948;6.590;2022-12-08T05:06:12;4.70;99.90
74171;DHT22;62526;50.948;6.590;2022-12-08T05:08:37;4.70;99.90
74171;DHT22;62526;50.948;6.590;2022-12-08T05:11:05;4.70;99.90
74171;DHT22;62526;50.948;6.590;2022-12-08T05:13:31;4.70;99.90
74171;DHT22;62526;50.948;6.590;2022-12-08T05:16:05;4.70;99.90
74171;DHT22;62526;50.948;6.590;2022-12-08T05:18:31;4.80;99.90
74171;DHT22;62526;50.948;6.590;2022-12-08T05:20:58;4.70;99.90
74171;DHT22;62526;50.948;6.590;2022-12-08T05:23:25;4.70;99.90
74171;DHT22;62526;50.948;6.590;2022-12-08T05:25:51;4.70;99.90
74171;DHT22;62526;50.948;6.590;2022-12-08T05:28:18;4.70;99.90
74171;DHT22;62526;50.948;6.590;2022-12-08T05:30:44;4.70;99.90
74171;DHT22;62526;50.948;6.590;2022-12-08T05:33:11;4.60;99.90
74171;DHT22;62526;50.948;6.590;2022-12-08T05:35:39;4.70;99.90
74171;DHT22;62526;50.948;6.590;2022-12-08T05:38:07;4.70;99.90
74171;DHT22;62526;50.948;6.590;2022-12-08T05:40:33;4.70;99.90
74171;DHT22;62526;50.948;6.590;2022-12-08T05:43:00;4.60;99.90
74171;DHT22;62526;50.948;6.590;2022-12-08T05:45:26;4.70;99.90
74171;DHT22;62526;50.948;6.590;2022-12-08T05:47:53;4.60;99.90
74171;DHT22;62526;50.948;6.590;2022-12-08T05:50:20;4.60;99.90
74171;DHT22;62526;50.948;6.590;2022-12-08T05:52:48;4.70;99.90
74171;DHT22;62526;50.948;6.590;2022-12-08T05:55:14;4.70;99.90
74171;DHT22;62526;50.948;6.590;2022-12-08T05:57:42;4.60;99.90
74171;DHT22;62526;50.948;6.590;2022-12-08T06:00:09;4.60;99.90
74171;DHT22;62526;50.948;6.590;2022-12-08T06:02:35;4.60;99.90
74171;DHT22;62526;50.948;6.590;2022-12-08T06:05:02;4.60;99.90
74171;DHT22;62526;50.948;6.590;2022-12-08T06:07:29;4.60;99.90
74171;DHT22;62526;50.948;6.590;2022-12-08T06:09:55;4.60;99.90
74171;DHT22;62526;50.948;6.590;2022-12-08T06:12:22;4.50;99.90
74171;DHT22;62526;50.948;6.590;2022-12-08T06:14:49;4.50;99.90
74171;DHT22;62526;50.948;6.590;2022-12-08T06:17:15;4.50;99.90
74171;DHT22;62526;50.948;6.590;2022-12-08T06:19:42;4.50;99.90
74171;DHT22;62526;50.948;6.590;2022-12-08T06:22:08;4.50;99.90
74171;DHT22;62526;50.948;6.590;2022-12-08T06:24:36;4.50;99.90
74171;DHT22;62526;50.948;6.590;2022-12-08T06:27:02;4.60;99.90
74171;DHT22;62526;50.948;6.590;2022-12-08T06:29:30;4.60;99.90
74171;DHT22;62526;50.948;6.590;2022-12-08T06:31:57;4.60;99.90
74171;DHT22;62526;50.948;6.590;2022-12-08T06:34:24;4.60;99.90
74171;DHT22;62526;50.948;6.590;2022-12-08T06:36:51;4.60;99.90
74171;DHT22;62526;50.948;6.590;2022-12-08T06:39:17;4.60;99.90
74171;DHT22;62526;50.948;6.590;2022-12-08T06:41:44;4.60;99.90
74171;DHT22;62526;50.948;6.590;2022-12-08T06:44:16;4.60;99.90
74171;DHT22;62526;50.948;6.590;2022-12-08T06:46:44;4.60;99.90
74171;DHT22;62526;50.948;6.590;2022-12-08T06:49:11;4.50;99.90
74171;DHT22;62526;50.948;6.590;2022-12-08T06:51:37;4.50;99.90
74171;DHT22;62526;50.948;6.590;2022-12-08T06:54:05;4.50;99.90
74171;DHT22;62526;50.948;6.590;2022-12-08T06:56:31;4.50;99.90
74171;DHT22;62526;50.948;6.590;2022-12-08T06:58:58;4.50;99.90
74171;DHT22;62526;50.948;6.590;2022-12-08T07:01:24;4.50;99.90
74171;DHT22;62526;50.948;6.590;2022-12-08T07:03:52;3.40;99.90
74171;DHT22;62526;50.948;6.590;2022-12-08T07:06:19;4.40;99.90
74171;DHT22;62526;50.948;6.590;2022-12-08T07:08:46;4.40;99.90
74171;DHT22;62526;50.948;6.590;2022-12-08T07:11:13;4.30;99.90
74171;DHT22;62526;50.948;6.590;2022-12-08T07:13:39;4.30;99.90
74171;DHT22;62526;50.948;6.590;2022-12-08T07:16:07;4.30;99.90
74171;DHT22;62526;50.948;6.590;2022-12-08T07:18:34;4.20;99.90
74171;DHT22;62526;50.948;6.590;2022-12-08T07:21:04;4.20;99.90
74171;DHT22;62526;50.948;6.590;2022-12-08T07:23:31;4.30;99.90
74171;DHT22;62526;50.948;6.590;2022-12-08T07:26:01;4.30;99.90
74171;DHT22;62526;50.948;6.590;2022-12-08T07:28:32;4.30;99.90
74171;DHT22;62526;50.948;6.590;2022-12-08T07:30:58;4.20;99.90
74171;DHT22;62526;50.948;6.590;2022-12-08T07:33:25;4.10;99.90
74171;DHT22;62526;50.948;6.590;2022-12-08T07:35:55;4.10;99.90
74171;DHT22;62526;50.948;6.590;2022-12-08T07:38:22;4.10;99.90
74171;DHT22;62526;50.948;6.590;2022-12-08T07:40:49;4.10;99.90
74171;DHT22;62526;50.948;6.590;2022-12-08T07:43:15;4.10;99.90
74171;DHT22;62526;50.948;6.590;2022-12-08T07:45:42;4.20;99.90
74171;DHT22;62526;50.948;6.590;2022-12-08T07:48:09;4.20;99.90
74171;DHT22;62526;50.948;6.590;2022-12-08T07:50:37;4.20;99.90
74171;DHT22;62526;50.948;6.590;2022-12-08T07:53:04;4.20;99.90
74171;DHT22;62526;50.948;6.590;2022-12-08T07:55:30;4.20;99.90
74171;DHT22;62526;50.948;6.590;2022-12-08T07:57:56;4.20;99.90
74171;DHT22;62526;50.948;6.590;2022-12-08T08:00:23;4.20;99.90
74171;DHT22;62526;50.948;6.590;2022-12-08T08:02:50;4.30;99.90
74171;DHT22;62526;50.948;6.590;2022-12-08T08:05:17;4.20;99.90
74171;DHT22;62526;50.948;6.590;2022-12-08T08:07:44;4.20;99.90
74171;DHT22;62526;50.948;6.590;2022-12-08T08:10:11;4.30;99.90
74171;DHT22;62526;50.948;6.590;2022-12-08T08:12:37;4.20;99.90
74171;DHT22;62526;50.948;6.590;2022-12-08T08:15:06;4.20;99.90
74171;DHT22;62526;50.948;6.590;2022-12-08T08:17:31;4.20;99.90
74171;DHT22;62526;50.948;6.590;2022-12-08T08:19:58;4.20;99.90
74171;DHT22;62526;50.948;6.590;2022-12-08T08:22:25;4.20;99.90
74171;DHT22;62526;50.948;6.590;2022-12-08T08:24:51;4.20;99.90
74171;DHT22;62526;50.948;6.590;2022-12-08T08:27:18;4.30;99.90
74171;DHT22;62526;50.948;6.590;2022-12-08T08:29:44;4.30;99.90
74171;DHT22;62526;50.948;6.590;2022-12-08T08:32:11;4.30;99.90
74171;DHT22;62526;50.948;6.590;2022-12-08T08:34:38;4.30;99.90
74171;DHT22;62526;50.948;6.590;2022-12-08T08:37:05;4.30;99.90
74171;DHT22;62526;50.948;6.590;2022-12-08T08:39:31;4.30;99.90
74171;DHT22;62526;50.948;6.590;2022-12-08T08:41:58;4.30;99.90
74171;DHT22;62526;50.948;6.590;2022-12-08T08:44:25;4.30;99.90
74171;DHT22;62526;50.948;6.590;2022-12-08T08:46:51;4.30;99.90
74171;DHT22;62526;50.948;6.590;2022-12-08T08:49:18;4.30;99.90
74171;DHT22;62526;50.948;6.590;2022-12-08T08:51:45;4.30;99.90
74171;DHT22;62526;50.948;6.590;2022-12-08T08:54:11;4.40;99.90
74171;DHT22;62526;50.948;6.590;2022-12-08T08:56:38;4.40;99.90
74171;DHT22;62526;50.948;6.590;2022-12-08T08:59:04;4.40;99.90
74171;DHT22;62526;50.948;6.590;2022-12-08T09:01:31;4.40;99.90
74171;DHT22;62526;50.948;6.590;2022-12-08T09:03:57;4.40;99.90
74171;DHT22;62526;50.948;6.590;2022-12-08T09:06:24;4.30;99.90
74171;DHT22;62526;50.948;6.590;2022-12-08T09:08:51;4.30;99.90
74171;DHT22;62526;50.948;6.590;2022-12-08T09:11:17;4.30;99.90
74171;DHT22;62526;50.948;6.590;2022-12-08T09:13:47;4.30;99.90
74171;DHT22;62526;50.948;6.590;2022-12-08T09:16:13;4.30;99.90
74171;DHT22;62526;50.948;6.590;2022-12-08T09:18:41;4.30;99.90
74171;DHT22;62526;50.948;6.590;2022-12-08T09:21:10;4.20;99.90
74171;DHT22;62526;50.948;6.590;2022-12-08T09:23:37;4.20;99.90
74171;DHT22;62526;50.948;6.590;2022-12-08T09:26:04;4.20;99.90
74171;DHT22;62526;50.948;6.590;2022-12-08T09:28:31;4.30;99.90
74171;DHT22;62526;50.948;6.590;2022-12-08T09:30:58;4.30;99.90
74171;DHT22;62526;50.948;6.590;2022-12-08T09:33:25;4.30;99.90
74171;DHT22;62526;50.948;6.590;2022-12-08T09:35:52;4.40;99.90
74171;DHT22;62526;50.948;6.590;2022-12-08T09:38:19;4.40;99.90
74171;DHT22;62526;50.948;6.590;2022-12-08T09:40:49;4.40;99.90
74171;DHT22;62526;50.948;6.590;2022-12-08T09:43:25;4.40;99.90
74171;DHT22;62526;50.948;6.590;2022-12-08T09:45:48;4.40;99.90
74171;DHT22;62526;50.948;6.590;2022-12-08T09:48:16;4.40;99.90
74171;DHT22;62526;50.948;6.590;2022-12-08T09:50:48;4.30;99.90
74171;DHT22;62526;50.948;6.590;2022-12-08T09:53:16;4.40;99.90
74171;DHT22;62526;50.948;6.590;2022-12-08T09:55:42;4.40;99.90
74171;DHT22;62526;50.948;6.590;2022-12-08T09:58:12;4.40;99.90
74171;DHT22;62526;50.948;6.590;2022-12-08T10:00:35;4.40;99.90
74171;DHT22;62526;50.948;6.590;2022-12-08T10:03:02;4.40;99.90
74171;DHT22;62526;50.948;6.590;2022-12-08T10:05:29;4.40;99.90
74171;DHT22;62526;50.948;6.590;2022-12-08T10:08:01;4.40;99.90
74171;DHT22;62526;50.948;6.590;2022-12-08T10:13:04;4.50;99.90
74171;DHT22;62526;50.948;6.590;2022-12-08T10:15:39;4.40;99.90
74171;DHT22;62526;50.948;6.590;2022-12-08T10:18:11;4.40;99.90
74171;DHT22;62526;50.948;6.590;2022-12-08T10:20:37;4.50;99.90
74171;DHT22;62526;50.948;6.590;2022-12-08T10:23:08;4.40;99.90
74171;DHT22;62526;50.948;6.590;2022-12-08T10:25:35;4.40;99.90
74171;DHT22;62526;50.948;6.590;2022-12-08T10:28:00;4.40;99.90
74171;DHT22;62526;50.948;6.590;2022-12-08T10:30:27;4.40;99.90
74171;DHT22;62526;50.948;6.590;2022-12-08T10:32:53;4.40;99.90
74171;DHT22;62526;50.948;6.590;2022-12-08T10:35:21;4.40;99.90
74171;DHT22;62526;50.948;6.590;2022-12-08T10:40:34;4.40;99.90
74171;DHT22;62526;50.948;6.590;2022-12-08T10:43:00;4.40;99.90
74171;DHT22;62526;50.948;6.590;2022-12-08T10:45:29;4.50;99.90
74171;DHT22;62526;50.948;6.590;2022-12-08T10:47:57;4.50;99.90
74171;DHT22;62526;50.948;6.590;2022-12-08T10:50:30;4.60;99.90
74171;DHT22;62526;50.948;6.590;2022-12-08T10:52:59;4.70;99.90
74171;DHT22;62526;50.948;6.590;2022-12-08T10:55:24;4.70;99.90
74171;DHT22;62526;50.948;6.590;2022-12-08T10:57:50;4.60;99.90
74171;DHT22;62526;50.948;6.590;2022-12-08T11:00:22;4.50;99.90
74171;DHT22;62526;50.948;6.590;2022-12-08T11:02:53;4.40;99.90
74171;DHT22;62526;50.948;6.590;2022-12-08T11:05:19;4.40;99.90
74171;DHT22;62526;50.948;6.590;2022-12-08T11:07:46;4.50;99.90
74171;DHT22;62526;50.948;6.590;2022-12-08T11:10:16;4.50;99.90
74171;DHT22;62526;50.948;6.590;2022-12-08T11:12:40;4.50;99.90
74171;DHT22;62526;50.948;6.590;2022-12-08T11:15:12;4.60;99.90
74171;DHT22;62526;50.948;6.590;2022-12-08T11:17:34;4.80;99.90
74171;DHT22;62526;50.948;6.590;2022-12-08T11:20:18;4.80;99.90
74171;DHT22;62526;50.948;6.590;2022-12-08T11:22:45;5.00;99.90
74171;DHT22;62526;50.948;6.590;2022-12-08T11:25:17;5.00;99.90
74171;DHT22;62526;50.948;6.590;2022-12-08T11:27:43;5.10;99.90
74171;DHT22;62526;50.948;6.590;2022-12-08T11:30:15;5.20;99.90
74171;DHT22;62526;50.948;6.590;2022-12-08T11:32:42;5.10;99.90
74171;DHT22;62526;50.948;6.590;2022-12-08T11:35:09;5.20;99.90
74171;DHT22;62526;50.948;6.590;2022-12-08T11:37:38;5.30;99.90
74171;DHT22;62526;50.948;6.590;2022-12-08T11:40:23;5.40;99.90
74171;DHT22;62526;50.948;6.590;2022-12-08T11:42:53;5.40;99.90
74171;DHT22;62526;50.948;6.590;2022-12-08T11:45:21;5.40;99.90
74171;DHT22;62526;50.948;6.590;2022-12-08T11:47:48;5.50;99.90
74171;DHT22;62526;50.948;6.590;2022-12-08T11:52:56;5.50;99.90
74171;DHT22;62526;50.948;6.590;2022-12-08T11:55:36;5.40;99.90
74171;DHT22;62526;50.948;6.590;2022-12-08T11:58:08;5.30;99.90
74171;DHT22;62526;50.948;6.590;2022-12-08T12:00:29;5.30;99.90
74171;DHT22;62526;50.948;6.590;2022-12-08T12:02:59;5.40;99.90
74171;DHT22;62526;50.948;6.590;2022-12-08T12:05:30;5.40;99.90
74171;DHT22;62526;50.948;6.590;2022-12-08T12:08:04;5.50;99.90
74171;DHT22;62526;50.948;6.590;2022-12-08T12:10:44;5.50;99.90
74171;DHT22;62526;50.948;6.590;2022-12-08T12:13:24;5.50;99.90
74171;DHT22;62526;50.948;6.590;2022-12-08T12:18:25;5.50;99.70
74171;DHT22;62526;50.948;6.590;2022-12-08T12:20:54;5.60;99.90
74171;DHT22;62526;50.948;6.590;2022-12-08T12:23:21;5.60;99.90
74171;DHT22;62526;50.948;6.590;2022-12-08T12:25:57;5.60;99.90
74171;DHT22;62526;50.948;6.590;2022-12-08T12:28:21;5.60;99.90
74171;DHT22;62526;50.948;6.590;2022-12-08T12:30:53;5.60;99.60
74171;DHT22;62526;50.948;6.590;2022-12-08T12:33:18;5.60;99.00
74171;DHT22;62526;50.948;6.590;2022-12-08T12:35:44;5.60;99.20
74171;DHT22;62526;50.948;6.590;2022-12-08T12:38:31;5.70;98.70
74171;DHT22;62526;50.948;6.590;2022-12-08T12:41:01;5.60;98.20
74171;DHT22;62526;50.948;6.590;2022-12-08T12:43:29;5.70;98.30
74171;DHT22;62526;50.948;6.590;2022-12-08T12:46:36;5.90;98.30
74171;DHT22;62526;50.948;6.590;2022-12-08T12:48:22;6.00;97.90
74171;DHT22;62526;50.948;6.590;2022-12-08T12:50:48;6.00;98.00
74171;DHT22;62526;50.948;6.590;2022-12-08T12:56:44;6.00;97.20
74171;DHT22;62526;50.948;6.590;2022-12-08T12:58:42;6.00;97.00
74171;DHT22;62526;50.948;6.590;2022-12-08T13:04:01;6.00;97.20
74171;DHT22;62526;50.948;6.590;2022-12-08T13:06:44;6.10;97.00
74171;DHT22;62526;50.948;6.590;2022-12-08T13:09:21;6.10;96.60
74171;DHT22;62526;50.948;6.590;2022-12-08T13:11:50;6.10;96.70
74171;DHT22;62526;50.948;6.590;2022-12-08T13:14:26;6.10;96.00
74171;DHT22;62526;50.948;6.590;2022-12-08T13:16:54;6.00;95.90
74171;DHT22;62526;50.948;6.590;2022-12-08T13:19:20;5.80;95.90
74171;DHT22;62526;50.948;6.590;2022-12-08T13:21:47;5.80;96.20
74171;DHT22;62526;50.948;6.590;2022-12-08T13:24:23;5.80;96.80
74171;DHT22;62526;50.948;6.590;2022-12-08T13:26:46;5.80;96.60
74171;DHT22;62526;50.948;6.590;2022-12-08T13:29:16;5.80;96.10
74171;DHT22;62526;50.948;6.590;2022-12-08T13:31:51;5.70;96.50
74171;DHT22;62526;50.948;6.590;2022-12-08T13:34:33;5.60;96.90
74171;DHT22;62526;50.948;6.590;2022-12-08T13:37:07;5.60;97.30
74171;DHT22;62526;50.948;6.590;2022-12-08T13:39:34;5.40;97.10
74171;DHT22;62526;50.948;6.590;2022-12-08T13:41:59;5.50;97.10
74171;DHT22;62526;50.948;6.590;2022-12-08T13:44:27;5.50;97.30
74171;DHT22;62526;50.948;6.590;2022-12-08T13:46:52;5.40;98.10
74171;DHT22;62526;50.948;6.590;2022-12-08T13:49:23;5.50;98.00
74171;DHT22;62526;50.948;6.590;2022-12-08T13:51:51;5.60;97.70
74171;DHT22;62526;50.948;6.590;2022-12-08T13:54:33;5.60;97.50
74171;DHT22;62526;50.948;6.590;2022-12-08T13:56:59;5.60;96.70
74171;DHT22;62526;50.948;6.590;2022-12-08T13:59:29;5.60;97.00
74171;DHT22;62526;50.948;6.590;2022-12-08T14:01:55;5.60;97.60
74171;DHT22;62526;50.948;6.590;2022-12-08T14:04:22;5.60;97.50
74171;DHT22;62526;50.948;6.590;2022-12-08T14:06:48;5.60;97.10
74171;DHT22;62526;50.948;6.590;2022-12-08T14:09:17;5.40;96.40
74171;DHT22;62526;50.948;6.590;2022-12-08T14:11:45;5.40;96.60
74171;DHT22;62526;50.948;6.590;2022-12-08T14:14:15;5.40;96.60
74171;DHT22;62526;50.948;6.590;2022-12-08T14:16:42;5.30;97.30
74171;DHT22;62526;50.948;6.590;2022-12-08T14:19:16;5.10;97.40
74171;DHT22;62526;50.948;6.590;2022-12-08T14:21:45;5.10;97.80
74171;DHT22;62526;50.948;6.590;2022-12-08T14:24:09;5.20;98.00
74171;DHT22;62526;50.948;6.590;2022-12-08T14:26:35;5.20;98.30
74171;DHT22;62526;50.948;6.590;2022-12-08T14:29:01;5.10;97.80
74171;DHT22;62526;50.948;6.590;2022-12-08T14:31:28;5.00;98.00
74171;DHT22;62526;50.948;6.590;2022-12-08T14:33:54;5.00;97.80
74171;DHT22;62526;50.948;6.590;2022-12-08T14:36:21;4.90;97.80
74171;DHT22;62526;50.948;6.590;2022-12-08T14:38:48;4.90;97.80
74171;DHT22;62526;50.948;6.590;2022-12-08T14:41:14;4.90;97.80
74171;DHT22;62526;50.948;6.590;2022-12-08T14:43:41;4.90;97.90
74171;DHT22;62526;50.948;6.590;2022-12-08T14:46:21;4.90;97.90
74171;DHT22;62526;50.948;6.590;2022-12-08T14:48:48;4.90;97.70
74171;DHT22;62526;50.948;6.590;2022-12-08T14:51:25;4.90;97.40
74171;DHT22;62526;50.948;6.590;2022-12-08T14:53:57;4.80;97.30
74171;DHT22;62526;50.948;6.590;2022-12-08T14:56:31;4.80;97.30
74171;DHT22;62526;50.948;6.590;2022-12-08T14:59:34;4.90;97.20
74171;DHT22;62526;50.948;6.590;2022-12-08T15:01:43;4.80;97.10
74171;DHT22;62526;50.948;6.590;2022-12-08T15:04:22;4.80;97.10
74171;DHT22;62526;50.948;6.590;2022-12-08T15:06:48;4.80;97.20
74171;DHT22;62526;50.948;6.590;2022-12-08T15:09:14;4.80;97.10
74171;DHT22;62526;50.948;6.590;2022-12-08T15:11:39;4.70;97.10
74171;DHT22;62526;50.948;6.590;2022-12-08T15:16:40;4.60;97.10
74171;DHT22;62526;50.948;6.590;2022-12-08T15:21:37;4.50;97.50
74171;DHT22;62526;50.948;6.590;2022-12-08T15:24:05;4.50;97.50
74171;DHT22;62526;50.948;6.590;2022-12-08T15:26:33;4.50;97.50
74171;DHT22;62526;50.948;6.590;2022-12-08T15:29:08;4.40;97.80
74171;DHT22;62526;50.948;6.590;2022-12-08T15:31:25;4.30;97.80
74171;DHT22;62526;50.948;6.590;2022-12-08T15:33:51;4.30;97.90
74171;DHT22;62526;50.948;6.590;2022-12-08T15:36:18;4.20;98.00
74171;DHT22;62526;50.948;6.590;2022-12-08T15:38:45;4.20;98.20
74171;DHT22;62526;50.948;6.590;2022-12-08T15:41:11;4.20;98.40
74171;DHT22;62526;50.948;6.590;2022-12-08T15:43:38;4.10;98.40
74171;DHT22;62526;50.948;6.590;2022-12-08T15:46:04;4.10;98.50
74171;DHT22;62526;50.948;6.590;2022-12-08T15:48:31;4.00;98.50
74171;DHT22;62526;50.948;6.590;2022-12-08T15:51:06;4.00;98.60
74171;DHT22;62526;50.948;6.590;2022-12-08T15:53:32;4.00;98.40
74171;DHT22;62526;50.948;6.590;2022-12-08T15:55:59;3.90;98.70
74171;DHT22;62526;50.948;6.590;2022-12-08T15:58:26;3.90;98.60
74171;DHT22;62526;50.948;6.590;2022-12-08T16:00:52;3.90;98.70
74171;DHT22;62526;50.948;6.590;2022-12-08T16:03:22;3.90;98.60
74171;DHT22;62526;50.948;6.590;2022-12-08T16:05:47;3.90;98.50
74171;DHT22;62526;50.948;6.590;2022-12-08T16:08:14;3.80;98.40
74171;DHT22;62526;50.948;6.590;2022-12-08T16:10:41;3.90;98.40
74171;DHT22;62526;50.948;6.590;2022-12-08T16:13:23;3.90;98.40
74171;DHT22;62526;50.948;6.590;2022-12-08T16:15:55;3.90;98.40